Time,TemperatureF,DewpointF,PressureIn,WindDirection,WindDirectionDegrees,WindSpeedMPH,WindSpeedGustMPH,Humidity,HourlyPrecipIn,Conditions,Clouds,dailyrainin,SoftwareType,DateUTC
2013-01-17 00:00:00,38.0,36.0,29.94,South,170,0.0,2.0,93,-99.99,,,-99.99,,2013-01-17 05:00:00,
2013-01-17 00:22:00,38.0,36.0,29.94,South,170,0.0,2.0,93,-99.99,,,-99.99,,2013-01-17 05:22:00,
2013-01-17 00:33:00,38.0,36.0,29.94,South,170,0.0,2.0,93,-99.99,,,-99.99,,2013-01-17 05:33:00,
2013-01-17 00:43:00,38.0,36.0,29.94,South,170,0.0,2.0,93,-99.99,,,-99.99,,2013-01-17 05:43:00,
2013-01-17 00:53:00,38.0,36.0,29.94,South,170,0.0,2.0,93,-99.99,,,-99.99,,2013-01-17 05:53:00,
2013-01-17 01:00:00,38.0,36.0,29.97,South,187,0.0,3.0,93,-99.99,,,-99.99,,2013-01-17 06:00:00,
2013-01-17 01:22:00,38.0,36.0,29.97,South,187,0.0,3.0,93,-99.99,,,-99.99,,2013-01-17 06:22:00,
2013-01-17 01:33:00,38.0,36.0,29.97,South,187,0.0,3.0,93,-99.99,,,-99.99,,2013-01-17 06:33:00,
2013-01-17 01:42:00,38.0,36.0,29.97,South,187,0.0,3.0,93,-99.99,,,-99.99,,2013-01-17 06:42:00,
2013-01-17 01:53:00,38.0,36.0,29.97,South,187,0.0,3.0,93,-99.99,,,-99.99,,2013-01-17 06:53:00,
2013-01-17 02:00:00,38.0,36.0,29.94,South,186,0.0,0.0,93,-99.99,,,-99.99,,2013-01-17 07:00:00,
2013-01-17 02:22:00,38.0,36.0,29.94,South,186,0.0,0.0,93,-99.99,,,-99.99,,2013-01-17 07:22:00,
2013-01-17 02:33:00,38.0,36.0,29.94,South,186,0.0,0.0,93,-99.99,,,-99.99,,2013-01-17 07:33:00,
2013-01-17 02:43:00,38.0,36.0,29.94,South,186,0.0,0.0,93,-99.99,,,-99.99,,2013-01-17 07:43:00,
2013-01-17 02:53:00,38.0,36.0,29.94,South,186,0.0,0.0,93,-99.99,,,-99.99,,2013-01-17 07:53:00,
2013-01-17 03:00:00,38.0,36.0,29.97,South,179,0.0,0.0,93,-99.99,,,-99.99,,2013-01-17 08:00:00,
2013-01-17 03:22:00,38.0,36.0,29.97,South,179,0.0,0.0,93,-99.99,,,-99.99,,2013-01-17 08:22:00,
2013-01-17 03:32:00,38.0,36.0,29.97,South,179,0.0,0.0,93,-99.99,,,-99.99,,2013-01-17 08:32:00,
2013-01-17 03:43:00,38.0,36.0,29.97,South,179,0.0,0.0,93,-99.99,,,-99.99,,2013-01-17 08:43:00,
2013-01-17 03:53:00,38.0,36.0,29.97,South,179,0.0,0.0,93,-99.99,,,-99.99,,2013-01-17 08:53:00,
2013-01-17 04:00:00,38.0,37.0,29.97,South,182,0.0,2.0,94,-99.99,,,-99.99,,2013-01-17 09:00:00,
2013-01-17 04:22:00,38.0,37.0,29.97,South,182,0.0,2.0,94,-99.99,,,-99.99,,2013-01-17 09:22:00,
2013-01-17 04:33:00,38.0,37.0,29.97,South,182,0.0,2.0,94,-99.99,,,-99.99,,2013-01-17 09:33:00,
2013-01-17 04:43:00,38.0,37.0,29.97,South,182,0.0,2.0,94,-99.99,,,-99.99,,2013-01-17 09:43:00,
2013-01-17 04:53:00,38.0,37.0,29.97,South,182,0.0,2.0,94,-99.99,,,-99.99,,2013-01-17 09:53:00,
2013-01-17 05:00:00,38.0,37.0,29.97,SSE,151,0.0,3.0,94,-99.99,,,-99.99,,2013-01-17 10:00:00,
2013-01-17 05:33:00,38.0,37.0,29.97,SSE,151,0.0,3.0,94,-99.99,,,-99.99,,2013-01-17 10:33:00,
2013-01-17 05:43:00,38.0,37.0,29.97,SSE,151,0.0,3.0,94,-99.99,,,-99.99,,2013-01-17 10:43:00,
2013-01-17 05:53:00,38.0,37.0,29.97,SSE,151,0.0,3.0,94,-99.99,,,-99.99,,2013-01-17 10:53:00,
2013-01-17 06:00:00,39.0,37.0,30.00,SSE,167,0.0,2.0,94,-99.99,,,-99.99,,2013-01-17 11:00:00,
2013-01-17 06:23:00,39.0,37.0,30.00,SSE,167,0.0,2.0,94,-99.99,,,-99.99,,2013-01-17 11:23:00,
2013-01-17 06:33:00,39.0,37.0,30.00,SSE,167,0.0,2.0,94,-99.99,,,-99.99,,2013-01-17 11:33:00,
2013-01-17 06:43:00,39.0,37.0,30.00,SSE,167,0.0,2.0,94,-99.99,,,-99.99,,2013-01-17 11:43:00,
2013-01-17 06:53:00,39.0,37.0,30.00,SSE,167,0.0,2.0,94,-99.99,,,-99.99,,2013-01-17 11:53:00,
2013-01-17 07:00:00,39.0,37.0,30.03,SE,145,0.0,4.0,94,-99.99,,,-99.99,,2013-01-17 12:00:00,
2013-01-17 07:23:00,39.0,37.0,30.03,SE,145,0.0,4.0,94,-99.99,,,-99.99,,2013-01-17 12:23:00,
2013-01-17 07:33:00,39.0,37.0,30.03,SE,145,0.0,4.0,94,-99.99,,,-99.99,,2013-01-17 12:33:00,
2013-01-17 07:43:00,39.0,37.0,30.03,SE,145,0.0,4.0,94,-99.99,,,-99.99,,2013-01-17 12:43:00,
2013-01-17 07:53:00,39.0,37.0,30.03,SE,145,0.0,4.0,94,-99.99,,,-99.99,,2013-01-17 12:53:00,
2013-01-17 08:00:00,38.0,37.0,30.03,South,188,1.0,3.0,94,-99.99,,,-99.99,,2013-01-17 13:00:00,
2013-01-17 08:23:00,38.0,37.0,30.03,South,188,1.0,3.0,94,-99.99,,,-99.99,,2013-01-17 13:23:00,
2013-01-17 08:33:00,38.0,37.0,30.03,South,188,1.0,3.0,94,-99.99,,,-99.99,,2013-01-17 13:33:00,
2013-01-17 08:43:00,38.0,37.0,30.03,South,188,1.0,3.0,94,-99.99,,,-99.99,,2013-01-17 13:43:00,
2013-01-17 08:53:00,38.0,37.0,30.03,South,188,1.0,3.0,94,-99.99,,,-99.99,,2013-01-17 13:53:00,
2013-01-17 09:00:00,38.0,37.0,30.06,SSE,168,0.0,1.0,94,-99.99,,,-99.99,,2013-01-17 14:00:00,
2013-01-17 09:23:00,38.0,37.0,30.06,SSE,168,0.0,1.0,94,-99.99,,,-99.99,,2013-01-17 14:23:00,
2013-01-17 09:33:00,38.0,37.0,30.06,SSE,168,0.0,1.0,94,-99.99,,,-99.99,,2013-01-17 14:33:00,
2013-01-17 09:43:00,38.0,37.0,30.06,SSE,168,0.0,1.0,94,-99.99,,,-99.99,,2013-01-17 14:43:00,
2013-01-17 09:53:00,38.0,37.0,30.06,SSE,168,0.0,1.0,94,-99.99,,,-99.99,,2013-01-17 14:53:00,
2013-01-17 10:00:00,39.0,36.0,30.09,South,177,0.0,3.0,88,-99.99,,,-99.99,,2013-01-17 15:00:00,
2013-01-17 10:23:00,39.0,36.0,30.09,South,177,0.0,3.0,88,-99.99,,,-99.99,,2013-01-17 15:23:00,
2013-01-17 10:33:00,39.0,36.0,30.09,South,177,0.0,3.0,88,-99.99,,,-99.99,,2013-01-17 15:33:00,
2013-01-17 10:43:00,39.0,36.0,30.09,South,177,0.0,3.0,88,-99.99,,,-99.99,,2013-01-17 15:43:00,
2013-01-17 10:53:00,39.0,36.0,30.09,South,177,0.0,3.0,88,-99.99,,,-99.99,,2013-01-17 15:53:00,
2013-01-17 11:00:00,40.0,33.0,30.06,SSW,213,0.0,3.0,76,-99.99,,,-99.99,,2013-01-17 16:00:00,
2013-01-17 11:23:00,40.0,33.0,30.06,SSW,213,0.0,3.0,76,-99.99,,,-99.99,,2013-01-17 16:23:00,
2013-01-17 11:34:00,40.0,33.0,30.06,SSW,213,0.0,3.0,76,-99.99,,,-99.99,,2013-01-17 16:34:00,
2013-01-17 11:44:00,40.0,33.0,30.06,SSW,213,0.0,3.0,76,-99.99,,,-99.99,,2013-01-17 16:44:00,
2013-01-17 11:53:00,40.0,33.0,30.06,SSW,213,0.0,3.0,76,-99.99,,,-99.99,,2013-01-17 16:53:00,
2013-01-17 12:00:00,40.0,32.0,30.06,North,11,0.0,2.0,74,-99.99,,,-99.99,,2013-01-17 17:00:00,
2013-01-17 12:23:00,40.0,32.0,30.06,North,11,0.0,2.0,74,-99.99,,,-99.99,,2013-01-17 17:23:00,
2013-01-17 12:33:00,40.0,32.0,30.06,North,11,0.0,2.0,74,-99.99,,,-99.99,,2013-01-17 17:33:00,
2013-01-17 12:43:00,40.0,32.0,30.06,North,11,0.0,2.0,74,-99.99,,,-99.99,,2013-01-17 17:43:00,
2013-01-17 12:54:00,40.0,32.0,30.06,North,11,0.0,2.0,74,-99.99,,,-99.99,,2013-01-17 17:54:00,
2013-01-17 13:00:00,40.0,31.0,30.06,West,264,1.0,4.0,71,-99.99,,,-99.99,,2013-01-17 18:00:00,
2013-01-17 13:23:00,40.0,31.0,30.06,West,264,1.0,4.0,71,-99.99,,,-99.99,,2013-01-17 18:23:00,
2013-01-17 13:34:00,40.0,31.0,30.06,West,264,1.0,4.0,71,-99.99,,,-99.99,,2013-01-17 18:34:00,
2013-01-17 13:44:00,40.0,31.0,30.06,West,264,1.0,4.0,71,-99.99,,,-99.99,,2013-01-17 18:44:00,
2013-01-17 13:53:00,40.0,31.0,30.06,West,264,1.0,4.0,71,-99.99,,,-99.99,,2013-01-17 18:53:00,
2013-01-17 14:00:00,39.0,29.0,30.06,WSW,248,0.0,4.0,67,-99.99,,,-99.99,,2013-01-17 19:00:00,
2013-01-17 14:23:00,39.0,29.0,30.06,WSW,248,0.0,4.0,67,-99.99,,,-99.99,,2013-01-17 19:23:00,
2013-01-17 14:33:00,39.0,29.0,30.06,WSW,248,0.0,4.0,67,-99.99,,,-99.99,,2013-01-17 19:33:00,
2013-01-17 14:43:00,39.0,29.0,30.06,WSW,248,0.0,4.0,67,-99.99,,,-99.99,,2013-01-17 19:43:00,
2013-01-17 14:54:00,39.0,29.0,30.06,WSW,248,0.0,4.0,67,-99.99,,,-99.99,,2013-01-17 19:54:00,
2013-01-17 15:00:00,39.0,32.0,30.06,SSW,196,0.0,1.0,74,-99.99,,,-99.99,,2013-01-17 20:00:00,
2013-01-17 15:33:00,39.0,32.0,30.06,SSW,196,0.0,1.0,74,-99.99,,,-99.99,,2013-01-17 20:33:00,
2013-01-17 15:43:00,39.0,32.0,30.06,SSW,196,0.0,1.0,74,-99.99,,,-99.99,,2013-01-17 20:43:00,
2013-01-17 15:54:00,39.0,32.0,30.06,SSW,196,0.0,1.0,74,-99.99,,,-99.99,,2013-01-17 20:54:00,
2013-01-17 16:00:00,38.0,33.0,30.06,South,173,0.0,0.0,81,-99.99,,,-99.99,,2013-01-17 21:00:00,
2013-01-17 16:23:00,38.0,33.0,30.06,South,173,0.0,0.0,81,-99.99,,,-99.99,,2013-01-17 21:23:00,
2013-01-17 16:34:00,38.0,33.0,30.06,South,173,0.0,0.0,81,-99.99,,,-99.99,,2013-01-17 21:34:00,
2013-01-17 16:43:00,38.0,33.0,30.06,South,173,0.0,0.0,81,-99.99,,,-99.99,,2013-01-17 21:43:00,
2013-01-17 16:53:00,38.0,33.0,30.06,South,173,0.0,0.0,81,-99.99,,,-99.99,,2013-01-17 21:53:00,
2013-01-17 17:00:00,38.0,33.0,30.06,South,173,0.0,4.0,84,-99.99,,,-99.99,,2013-01-17 22:00:00,
2013-01-17 17:23:00,38.0,33.0,30.06,South,173,0.0,4.0,84,-99.99,,,-99.99,,2013-01-17 22:23:00,
2013-01-17 17:33:00,38.0,33.0,30.06,South,173,0.0,4.0,84,-99.99,,,-99.99,,2013-01-17 22:33:00,
2013-01-17 17:43:00,38.0,33.0,30.06,South,173,0.0,4.0,84,-99.99,,,-99.99,,2013-01-17 22:43:00,
2013-01-17 17:53:00,38.0,33.0,30.06,South,173,0.0,4.0,84,-99.99,,,-99.99,,2013-01-17 22:53:00,
2013-01-17 18:00:00,37.0,34.0,30.06,South,176,0.0,0.0,89,-99.99,,,-99.99,,2013-01-17 23:00:00,
2013-01-17 18:23:00,37.0,34.0,30.06,South,176,0.0,0.0,89,-99.99,,,-99.99,,2013-01-17 23:23:00,
2013-01-17 18:33:00,37.0,34.0,30.06,South,176,0.0,0.0,89,-99.99,,,-99.99,,2013-01-17 23:33:00,
2013-01-17 18:43:00,37.0,34.0,30.06,South,176,0.0,0.0,89,-99.99,,,-99.99,,2013-01-17 23:43:00,
2013-01-17 18:53:00,37.0,34.0,30.06,South,176,0.0,0.0,89,-99.99,,,-99.99,,2013-01-17 23:53:00,
2013-01-17 19:00:00,36.0,34.0,30.06,SSW,194,0.0,0.0,91,-99.99,,,-99.99,,2013-01-18 00:00:00,
2013-01-17 19:23:00,36.0,34.0,30.06,SSW,194,0.0,0.0,91,-99.99,,,-99.99,,2013-01-18 00:23:00,
2013-01-17 19:33:00,36.0,34.0,30.06,SSW,194,0.0,0.0,91,-99.99,,,-99.99,,2013-01-18 00:33:00,
2013-01-17 19:43:00,36.0,34.0,30.06,SSW,194,0.0,0.0,91,-99.99,,,-99.99,,2013-01-18 00:43:00,
2013-01-17 19:53:00,36.0,34.0,30.06,SSW,194,0.0,0.0,91,-99.99,,,-99.99,,2013-01-18 00:53:00,
2013-01-17 20:00:00,36.0,32.0,30.06,SW,228,0.0,3.0,84,-99.99,,,-99.99,,2013-01-18 01:00:00,
2013-01-17 20:33:00,36.0,32.0,30.06,SW,228,0.0,3.0,84,-99.99,,,-99.99,,2013-01-18 01:33:00,
2013-01-17 20:43:00,36.0,32.0,30.06,SW,228,0.0,3.0,84,-99.99,,,-99.99,,2013-01-18 01:43:00,
2013-01-17 20:53:00,36.0,32.0,30.06,SW,228,0.0,3.0,84,-99.99,,,-99.99,,2013-01-18 01:53:00,
2013-01-17 21:00:00,35.0,32.0,30.03,SW,224,0.0,1.0,88,-99.99,,,-99.99,,2013-01-18 02:00:00,
2013-01-17 21:23:00,35.0,32.0,30.03,SW,224,0.0,1.0,88,-99.99,,,-99.99,,2013-01-18 02:23:00,
2013-01-17 21:33:00,35.0,32.0,30.03,SW,224,0.0,1.0,88,-99.99,,,-99.99,,2013-01-18 02:33:00,
2013-01-17 21:43:00,35.0,32.0,30.03,SW,224,0.0,1.0,88,-99.99,,,-99.99,,2013-01-18 02:43:00,
2013-01-17 21:53:00,35.0,32.0,30.03,SW,224,0.0,1.0,88,-99.99,,,-99.99,,2013-01-18 02:53:00,
2013-01-17 22:00:00,36.0,31.0,29.97,WNW,290,0.0,4.0,83,-99.99,,,-99.99,,2013-01-18 03:00:00,
2013-01-17 22:23:00,36.0,31.0,29.97,WNW,290,0.0,4.0,83,-99.99,,,-99.99,,2013-01-18 03:23:00,
2013-01-17 22:33:00,36.0,31.0,29.97,WNW,290,0.0,4.0,83,-99.99,,,-99.99,,2013-01-18 03:33:00,
2013-01-17 22:43:00,36.0,31.0,29.97,WNW,290,0.0,4.0,83,-99.99,,,-99.99,,2013-01-18 03:43:00,
2013-01-17 22:53:00,36.0,31.0,29.97,WNW,290,0.0,4.0,83,-99.99,,,-99.99,,2013-01-18 03:53:00,
2013-01-17 23:00:00,34.0,32.0,30.03,SSW,204,0.0,8.0,90,-99.99,,,-99.99,,2013-01-18 04:00:00,
2013-01-17 23:22:00,34.0,32.0,30.03,SSW,204,0.0,8.0,90,-99.99,,,-99.99,,2013-01-18 04:22:00,
2013-01-17 23:33:00,34.0,32.0,30.03,SSW,204,0.0,8.0,90,-99.99,,,-99.99,,2013-01-18 04:33:00,
2013-01-17 23:43:00,34.0,32.0,30.03,SSW,204,0.0,8.0,90,-99.99,,,-99.99,,2013-01-18 04:43:00,
2013-01-17 23:53:00,34.0,32.0,30.03,SSW,204,0.0,8.0,90,-99.99,,,-99.99,,2013-01-18 04:53:00,